Aérodrome :
LOGIN :

S'inscrire | Disclaimer

   EN    FR    IT 

 










Légende :    VFR   VFR Marginal   IFR   IFR Intensif   IFR Très Intensif
Visi : 
Plafond : 
>= 8 km
>= 3000ft
5 à 8 km
1000 à 3000 ft
1500m à 5 km
500 à 1000 ft
800 à 1500m
200 à 500 ft
< 800m
< 200 ft
Symboles :   Orages  Brouillard  Fortes neiges  Fortes précipitations  Vent > 20 kt
SIGMETs :   Divers  Orages  Givrage  Turbulence  Onde Orograph.  Cendres Volcan.






- Altitude de l'aérodrome : 194 ft


EBCV - Chièvres

DERNIER METAR :
  • 140355Z AUTO 17005KT 9999 NCD 19/17 Q1011 BLU

METARs EXPIRÉS :
  • 140325Z AUTO 18003KT 9999 NCD 19/16 Q1011 BLU
  • 140255Z AUTO 13003KT 9999 FEW140/// 19/16 Q1012 BLU
  • 140225Z AUTO 18004KT 9999 FEW140/// 20/16 Q1012 BLU
  • 140155Z AUTO 16003KT 9999 NCD 20/16 Q1012 BLU

TAF TAF EBCV
Valide du 13 à 19h jusqu'au 14 à 07h UTC


131541Z 1319/1407 22005KT 9999 SCT120 SCT220
TEMPO 1319/1407 VRB10G20KT 6000 -SHRA -TSRA FEW050CB SCT120
PROB30
TEMPO 1319/1407 VRB15G25KT 4000 SHRA TSRA SCT030CB BKN100
BECMG 1405/1407 FEW012 BKN015
PROB30
TEMPO 1405/1407 4500 BR SCT010 BKN012 BY EBWM



MET'MAP, la Météo Aéronautique d'un coup d'oeil ! - Copyright ORBIFLY Décembre 2007 - Disclaimer

ORBIFLY MET'MAP TEAM :

Programmation & Développement : Alexandra Zaïnal
Sur une idée originale de : Baudouin d'Aumeries
Assistance à la programmation : Marc-Olivier Méhu
Soutien technique & logistique : Manuel Goepfert

Contact : metmap@orbifly.com




SOURCES & CREDITS :

   NOAA